NFTF/TBU METAR and TAF weather

Enter ICAO airport designator
Station Type Date Time Source
NFTF METAR 2020/04/04 11:00 UTC NOAA

NFTF 041100Z 11005KT 9999 FEW008 FEW015TCU BKN120 24/22 Q1011


Station Type Date Time Source
NFTF Decoded METAR 2020/04/04 11:00 UTC NOAA

Fua'Amotu, Tonga (NFTF) 21-14S 175-09W 41M
Apr 04, 2020 - 07:00 AM EDT / 2020.04.04 1100 UTC
Wind: from the ESE (110 degrees) at 6 MPH (5 KT):0
Visibility: greater than 7 mile(s):0
Sky conditions: mostly cloudy
Weather: Towering cumulus clouds observed
Temperature: 75 F (24 C)
Dew Point: 71 F (22 C)
Relative Humidity: 88%
Pressure (altimeter): 29.85 in. Hg (1011 hPa)
ob: NFTF 041100Z 11005KT 9999 FEW008 FEW015TCU BKN120 24/22 Q1011
cycle: 11

Station Type Date Time Source
NFTF TAF 2020/04/04 12:15 UTC NOAA

TAF NFTF 041109Z 0412/0512 11005KT 9999 FEW008 FEW015 BKN100 PROB30
TEMPO 0500/0508 5000 SHRA BKN015

Example: see airport list